createdAt,value
2023-05-07T00:02:15.650Z,12.70
2023-05-07T00:07:18.085Z,12.97
2023-05-07T00:12:20.548Z,12.10
2023-05-07T00:17:22.944Z,12.68
2023-05-07T00:22:25.349Z,11.73
2023-05-07T00:27:27.788Z,11.50
2023-05-07T00:32:30.175Z,11.20
2023-05-07T00:37:32.765Z,12.15
2023-05-07T00:42:35.249Z,11.73
2023-05-07T00:47:38.811Z,12.18
2023-05-07T00:57:45.984Z,12.20
2023-05-07T01:02:48.676Z,11.88
2023-05-07T01:07:54.285Z,11.85
2023-05-07T01:12:56.750Z,12.65
2023-05-07T01:17:59.276Z,10.02
2023-05-07T01:23:08.439Z,11.20
2023-05-07T01:28:11.280Z,11.13
2023-05-07T01:33:20.497Z,11.07
2023-05-07T01:38:23.727Z,10.00
2023-05-07T01:43:26.570Z,10.95
2023-05-07T01:48:29.903Z,10.63
2023-05-07T01:53:37.942Z,10.45
2023-05-07T01:58:52.408Z,10.98
2023-05-07T02:03:55.193Z,10.32
2023-05-07T02:09:04.880Z,10.48
2023-05-07T02:14:07.459Z,11.60
2023-05-07T02:19:10.259Z,11.10
2023-05-07T02:24:12.723Z,10.30
2023-05-07T02:29:15.166Z,10.35
2023-05-07T02:34:18.481Z,9.50
2023-05-07T02:39:21.869Z,9.90
2023-05-07T02:44:24.248Z,9.40
2023-05-07T02:54:31.036Z,8.98
2023-05-07T02:59:34.591Z,9.90
2023-05-07T03:09:39.798Z,9.82
2023-05-07T03:14:43.302Z,9.63
2023-05-07T03:19:45.858Z,9.80
2023-05-07T03:24:49.242Z,8.90
2023-05-07T03:29:51.715Z,10.90
2023-05-07T03:34:54.311Z,10.13
2023-05-07T03:39:57.855Z,10.25
2023-05-07T03:45:00.540Z,10.63
2023-05-07T03:50:03.464Z,9.70
2023-05-07T03:55:07.561Z,9.00
2023-05-07T04:00:12.480Z,8.45
2023-05-07T04:05:23.990Z,10.00
2023-05-07T04:10:31.903Z,9.15
2023-05-07T04:15:38.432Z,7.93
2023-05-07T04:20:44.804Z,9.27
2023-05-07T04:25:49.934Z,8.02
2023-05-07T04:31:07.979Z,7.93
2023-05-07T04:36:13.071Z,8.60
2023-05-07T04:41:24.406Z,7.63
2023-05-07T04:46:31.960Z,8.20
2023-05-07T04:51:35.797Z,7.10
2023-05-07T04:56:39.145Z,7.53
2023-05-07T05:01:45.055Z,7.45
2023-05-07T05:06:47.660Z,7.50
2023-05-07T05:11:50.918Z,7.88
2023-05-07T05:16:53.393Z,8.07
2023-05-07T05:21:56.393Z,7.72
2023-05-07T05:26:59.696Z,7.35
2023-05-07T05:32:02.751Z,7.25
2023-05-07T05:37:08.084Z,6.95
2023-05-07T05:42:11.060Z,9.50
2023-05-07T05:47:18.205Z,7.35
2023-05-07T05:52:21.637Z,6.97
2023-05-07T05:57:33.582Z,8.27
2023-05-07T06:02:36.480Z,8.00
2023-05-07T06:07:41.764Z,7.35
2023-05-07T06:12:45.678Z,6.55
2023-05-07T06:17:50.948Z,6.40
2023-05-07T06:22:54.479Z,5.90
2023-05-07T06:33:01.739Z,5.60
2023-05-07T06:38:04.471Z,5.95
2023-05-07T06:43:08.393Z,5.30
2023-05-07T06:48:20.056Z,4.60
2023-05-07T06:53:32.892Z,4.95
2023-05-07T06:58:37.123Z,4.10
2023-05-07T07:03:42.120Z,3.70
2023-05-07T07:08:45.050Z,4.00
2023-05-07T07:13:51.842Z,3.30
2023-05-07T07:18:54.500Z,3.50
2023-05-07T07:23:57.031Z,3.50
2023-05-07T07:29:00.005Z,3.20
2023-05-07T07:34:02.464Z,3.20
2023-05-07T07:39:05.430Z,3.17
2023-05-07T07:44:09.946Z,3.33
2023-05-07T07:49:14.003Z,3.00
2023-05-07T07:54:17.680Z,2.95
2023-05-07T07:59:21.506Z,3.40
2023-05-07T08:04:25.786Z,3.00
2023-05-07T08:09:30.544Z,2.90
2023-05-07T08:14:37.684Z,2.85
2023-05-07T08:19:42.933Z,2.88
2023-05-07T08:24:48.243Z,3.30
2023-05-07T08:29:51.993Z,2.90
2023-05-07T08:34:56.780Z,3.05
2023-05-07T08:39:59.658Z,2.83
2023-05-07T08:45:10.358Z,2.80
2023-05-07T08:50:14.642Z,2.53
2023-05-07T08:55:18.878Z,2.42
2023-05-07T09:00:21.933Z,2.58
2023-05-07T09:05:27.196Z,2.38
2023-05-07T09:10:31.060Z,2.50
2023-05-07T09:15:33.691Z,2.00
2023-05-07T09:20:38.662Z,2.10
2023-05-07T09:25:42.801Z,7.30
2023-05-07T09:30:51.928Z,2.75
2023-05-07T09:35:56.262Z,20.00
2023-05-07T09:41:25.592Z,7.43
2023-05-07T09:46:40.458Z,3.40
2023-05-07T09:51:53.577Z,2.40
2023-05-07T09:56:59.947Z,2.47
2023-05-07T10:02:07.525Z,2.17
2023-05-07T10:07:17.763Z,2.35
2023-05-07T10:12:22.482Z,2.20
2023-05-07T10:17:25.778Z,2.72
2023-05-07T10:22:29.976Z,2.03
2023-05-07T10:32:42.298Z,1.90
2023-05-07T10:37:50.758Z,2.10
2023-05-07T10:43:03.035Z,3.20
2023-05-07T10:48:28.827Z,2.75
2023-05-07T10:53:38.125Z,3.08
2023-05-07T10:58:51.478Z,2.58
2023-05-07T11:04:16.450Z,1.70
2023-05-07T11:09:53.067Z,2.27
2023-05-07T11:15:02.554Z,2.30
2023-05-07T11:20:11.330Z,1.80
2023-05-07T11:25:30.300Z,2.05
2023-05-07T11:30:47.090Z,2.20
2023-05-07T11:35:55.101Z,2.30
2023-05-07T11:41:02.043Z,2.50
2023-05-07T11:46:09.191Z,2.95
2023-05-07T11:51:14.442Z,2.95
2023-05-07T11:56:18.854Z,2.35
2023-05-07T12:01:21.738Z,12.05
2023-05-07T12:12:21.808Z,2.47
2023-05-07T12:17:24.480Z,2.78
2023-05-07T12:22:27.311Z,2.33
2023-05-07T12:27:30.421Z,2.38
2023-05-07T12:32:37.746Z,3.75
2023-05-07T12:37:40.728Z,2.30
2023-05-07T12:42:48.181Z,2.25
2023-05-07T12:47:53.920Z,2.35
2023-05-07T12:58:05.307Z,2.70
2023-05-07T13:03:12.607Z,2.47
2023-05-07T13:08:46.462Z,2.13
2023-05-07T13:13:50.307Z,2.28
2023-05-07T13:18:53.755Z,2.50
2023-05-07T13:23:56.344Z,2.80
2023-05-07T13:28:58.959Z,3.00
2023-05-07T13:34:01.496Z,6.60
2023-05-07T13:39:04.875Z,5.03
2023-05-07T13:44:07.764Z,8.05
2023-05-07T13:49:12.358Z,6.10
2023-05-07T13:54:14.969Z,3.35
2023-05-07T13:59:17.575Z,6.45
2023-05-07T14:04:20.135Z,3.90
2023-05-07T14:09:22.567Z,2.70
2023-05-07T14:14:27.028Z,2.42
2023-05-07T14:19:30.540Z,3.05
2023-05-07T14:29:41.378Z,2.47
2023-05-07T14:34:45.384Z,2.97
2023-05-07T14:39:49.854Z,2.70
2023-05-07T14:44:54.328Z,2.30
2023-05-07T14:49:58.532Z,2.70
2023-05-07T14:55:01.566Z,2.20
2023-05-07T15:00:06.033Z,2.35
2023-05-07T15:05:08.520Z,2.08
2023-05-07T15:10:11.022Z,2.03
2023-05-07T15:15:13.743Z,2.40
2023-05-07T15:20:16.527Z,2.08
2023-05-07T15:25:19.176Z,3.07
2023-05-07T15:30:21.608Z,3.13
2023-05-07T15:35:24.655Z,9.53
2023-05-07T15:40:27.133Z,3.53
2023-05-07T15:45:29.725Z,3.75
2023-05-07T15:50:33.196Z,4.60
2023-05-07T16:00:40.982Z,3.95
2023-05-07T16:05:43.528Z,3.80
2023-05-07T16:10:46.022Z,4.10
2023-05-07T16:15:51.991Z,3.57
2023-05-07T16:20:54.835Z,4.18
2023-05-07T16:25:57.359Z,4.38
2023-05-07T16:31:00.179Z,6.60
2023-05-07T16:36:03.603Z,3.25
2023-05-07T16:41:06.208Z,2.97
2023-05-07T16:46:08.677Z,3.00
2023-05-07T16:51:11.191Z,4.33
2023-05-07T16:56:13.621Z,5.10
2023-05-07T17:01:17.658Z,4.70
2023-05-07T17:06:20.712Z,6.78
2023-05-07T17:11:23.566Z,5.45
2023-05-07T17:16:26.856Z,3.53
2023-05-07T17:21:29.362Z,4.38
2023-05-07T17:26:34.951Z,4.18
2023-05-07T17:31:38.714Z,4.00
2023-05-07T17:41:43.896Z,4.30
2023-05-07T17:46:46.373Z,4.40
2023-05-07T17:51:54.894Z,4.63
2023-05-07T17:56:58.315Z,3.83
2023-05-07T18:02:00.790Z,4.53
2023-05-07T18:07:03.443Z,7.78
2023-05-07T18:12:06.191Z,3.97
2023-05-07T18:17:08.887Z,4.10
2023-05-07T18:22:11.560Z,4.23
2023-05-07T18:27:14.030Z,3.97
2023-05-07T18:32:17.126Z,4.18
2023-05-07T18:37:19.838Z,4.50
2023-05-07T18:42:22.362Z,4.03
2023-05-07T18:47:24.831Z,4.30
2023-05-07T18:52:27.561Z,4.72
2023-05-07T18:57:30.032Z,4.40
2023-05-07T19:02:33.232Z,4.70
2023-05-07T19:07:36.508Z,4.85
2023-05-07T19:12:39.155Z,4.63
2023-05-07T19:17:41.716Z,4.03
2023-05-07T19:22:44.199Z,4.85
2023-05-07T19:27:48.380Z,5.13
2023-05-07T19:32:50.932Z,5.38
2023-05-07T19:37:53.602Z,5.93
2023-05-07T19:42:56.387Z,6.45
2023-05-07T19:47:59.066Z,6.27
2023-05-07T19:53:01.471Z,6.05
2023-05-07T19:58:04.028Z,11.85
2023-05-07T20:03:06.648Z,9.03
2023-05-07T20:08:09.235Z,6.07
2023-05-07T20:13:12.267Z,6.15
2023-05-07T20:18:16.163Z,6.47
2023-05-07T20:23:18.593Z,8.50
2023-05-07T20:28:21.085Z,13.68
2023-05-07T20:33:23.539Z,21.75
2023-05-07T20:38:27.397Z,19.92
2023-05-07T20:43:29.823Z,12.07
2023-05-07T20:48:36.956Z,10.30
2023-05-07T20:53:41.237Z,10.40
2023-05-07T20:58:43.980Z,9.23
2023-05-07T21:03:46.670Z,8.43
2023-05-07T21:08:49.497Z,7.90
2023-05-07T21:13:53.702Z,8.50
2023-05-07T21:18:56.609Z,9.07
2023-05-07T21:23:59.328Z,9.67
2023-05-07T21:29:03.529Z,11.90
2023-05-07T21:34:08.203Z,12.70
2023-05-07T21:39:11.330Z,9.57
2023-05-07T21:44:14.630Z,10.38
2023-05-07T21:49:17.531Z,10.00
2023-05-07T21:54:20.254Z,9.13
2023-05-07T21:59:25.471Z,7.50
2023-05-07T22:04:28.286Z,8.35
2023-05-07T22:09:34.677Z,7.50
2023-05-07T22:14:37.677Z,7.00
2023-05-07T22:19:41.086Z,11.80
2023-05-07T22:24:46.855Z,12.50
2023-05-07T22:29:49.643Z,9.90
2023-05-07T22:34:52.416Z,16.83
2023-05-07T22:39:55.340Z,11.65
2023-05-07T22:44:58.258Z,9.88
2023-05-07T22:50:01.360Z,9.55
2023-05-07T22:55:04.814Z,13.52
2023-05-07T23:00:08.510Z,11.90
2023-05-07T23:10:14.217Z,11.07
2023-05-07T23:15:22.459Z,11.18
2023-05-07T23:20:25.165Z,9.98
2023-05-07T23:25:29.810Z,10.87
2023-05-07T23:30:32.554Z,8.57
2023-05-07T23:35:35.394Z,9.73
2023-05-07T23:40:37.990Z,8.07
2023-05-07T23:45:41.244Z,7.83
2023-05-07T23:50:45.892Z,7.72
2023-05-07T23:55:48.796Z,7.32
